Time;durP1;ratioP1;P1;durP2;ratioP2;P2;SDS_P1;SDS_P2;PMS_P1;PMS_P2;Temp;Humidity;BMP_temperature;BMP_pressure;BME280_temperature;BME280_humidity;BME280_pressure;Samples;Min_cycle;Max_cycle;Signal;HPM_P1;HPM_P2
2022/07/04 00:00:06;;;;;;;5.75;5.17;;;;;;;20.83;63.77;99021.27;2173124;82;21004;-83
2022/07/04 00:03:07;;;;;;;5.72;5.12;;;;;;;20.84;63.81;99015.52;2172487;82;20996;-84
2022/07/04 00:06:07;;;;;;;6.03;4.83;;;;;;;20.86;63.91;99014.56;2172526;82;20921;-83
2022/07/04 00:09:07;;;;;;;4.90;4.50;;;;;;;20.88;63.70;99013.19;2173200;82;21420;-83
2022/07/04 00:12:08;;;;;;;5.97;5.42;;;;;;;20.91;63.78;99008.67;2174263;82;20960;-83
2022/07/04 00:15:08;;;;;;;6.00;5.40;;;;;;;20.90;63.77;99006.92;2174452;82;21241;-83
2022/07/04 00:18:09;;;;;;;8.00;4.97;;;;;;;20.89;63.77;99005.19;2173427;82;20980;-83
2022/07/04 00:21:09;;;;;;;5.40;5.00;;;;;;;20.87;63.68;99001.70;2173550;82;20988;-83
2022/07/04 00:24:09;;;;;;;5.05;4.65;;;;;;;20.85;63.70;98994.24;2173350;82;21391;-83
2022/07/04 00:27:10;;;;;;;5.90;5.40;;;;;;;20.84;63.85;98997.81;2173258;81;21040;-83
2022/07/04 00:30:10;;;;;;;5.45;5.12;;;;;;;20.84;63.70;98999.14;2173331;82;21001;-83
2022/07/04 00:33:11;;;;;;;5.20;4.62;;;;;;;20.79;63.75;98999.69;2173417;82;20993;-84
2022/07/04 00:36:11;;;;;;;5.20;4.80;;;;;;;20.77;63.87;98997.53;2173078;82;20945;-83
2022/07/04 00:39:11;;;;;;;7.05;4.42;;;;;;;20.78;63.86;98995.29;2173054;82;21357;-83
2022/07/04 00:42:12;;;;;;;5.72;4.55;;;;;;;20.79;63.76;98997.03;2172996;82;20972;-84
2022/07/04 00:45:13;;;;;;;5.95;4.85;;;;;;;20.78;63.62;98991.31;2173159;82;20992;-84
2022/07/04 00:48:15;;;;;;;5.42;4.92;;;;;;;20.76;63.72;98983.85;2173079;82;20913;-83
2022/07/04 00:51:13;;;;;;;4.85;4.50;;;;;;;20.76;63.64;98981.66;2173251;82;20996;-84
2022/07/04 00:54:14;;;;;;;5.50;5.05;;;;;;;20.74;63.58;98992.30;2173171;82;21357;-83
2022/07/04 00:57:14;;;;;;;5.03;4.67;;;;;;;20.72;63.46;98983.97;2172780;82;21039;-83
2022/07/04 01:00:15;;;;;;;4.75;4.35;;;;;;;20.70;63.58;98981.81;2173027;82;20965;-84
2022/07/04 01:03:15;;;;;;;4.95;4.62;;;;;;;20.65;63.68;98981.48;2173154;82;21012;-83
2022/07/04 01:06:15;;;;;;;4.28;3.80;;;;;;;20.64;63.58;98982.39;2173022;82;20958;-82
2022/07/04 01:09:16;;;;;;;6.85;4.55;;;;;;;20.63;63.57;98980.66;2173247;82;20921;-83
2022/07/04 01:12:16;;;;;;;5.05;4.65;;;;;;;20.63;63.21;98983.77;2173158;82;20969;-83
2022/07/04 01:15:17;;;;;;;5.10;4.70;;;;;;;20.60;63.47;98986.04;2173104;82;20969;-85
2022/07/04 01:18:17;;;;;;;5.72;4.50;;;;;;;20.58;63.50;98985.21;2172996;82;20882;-83
2022/07/04 01:21:17;;;;;;;6.20;4.90;;;;;;;20.56;63.64;98985.70;2173187;82;20954;-83
2022/07/04 01:24:18;;;;;;;5.05;4.62;;;;;;;20.54;63.48;98980.90;2172989;82;21427;-84
2022/07/04 01:27:18;;;;;;;4.97;4.58;;;;;;;20.55;63.32;98987.07;2172526;80;21024;-83
2022/07/04 01:30:19;;;;;;;6.28;4.50;;;;;;;20.51;63.31;98986.28;2172921;82;20945;-82
2022/07/04 01:33:19;;;;;;;4.72;4.15;;;;;;;20.49;63.23;98988.56;2173353;82;20965;-84
2022/07/04 01:36:20;;;;;;;4.92;4.53;;;;;;;20.48;63.43;98981.52;2173151;82;20925;-84
2022/07/04 01:39:20;;;;;;;4.90;4.50;;;;;;;20.47;63.36;98989.05;2173275;82;21008;-84
2022/07/04 01:42:20;;;;;;;7.08;4.70;;;;;;;20.46;63.34;98976.70;2174099;82;21341;-84
2022/07/04 01:45:21;;;;;;;5.35;4.60;;;;;;;20.42;63.21;98979.02;2174651;82;20972;-85
2022/07/04 01:48:21;;;;;;;6.22;5.17;;;;;;;20.38;62.94;98978.20;2173917;82;21321;-86
2022/07/04 01:51:22;;;;;;;5.83;5.33;;;;;;;20.34;63.14;98981.84;2174386;82;20909;-84
2022/07/04 01:54:24;;;;;;;6.27;5.60;;;;;;;20.35;62.74;98983.12;2174382;82;20957;-84
2022/07/04 01:57:22;;;;;;;5.97;5.47;;;;;;;20.03;59.46;98982.59;2173333;82;21000;-84
2022/07/04 02:03:42;;;;;;;7.65;5.40;;;;;;;17.80;60.69;98980.66;2173435;81;21004;-86
2022/07/04 02:06:42;;;;;;;8.43;5.12;;;;;;;16.91;62.35;98976.06;2173834;82;20960;-83
2022/07/04 02:09:43;;;;;;;5.55;5.10;;;;;;;16.33;63.92;98973.09;2174398;82;21305;-83
2022/07/04 02:13:01;;;;;;;5.55;5.05;;;;;;;15.88;65.16;98979.17;2174358;82;21000;-83
2022/07/04 02:16:01;;;;;;;5.87;5.25;;;;;;;15.49;66.24;98980.24;2174952;82;21032;-83
2022/07/04 02:19:02;;;;;;;87.47;13.15;;;;;;;15.17;67.42;98982.59;2173996;82;21004;-83
2022/07/04 02:22:02;;;;;;;16.42;6.33;;;;;;;14.95;68.47;98979.63;2173890;82;20953;-83
2022/07/04 02:25:03;;;;;;;8.78;5.70;;;;;;;14.75;69.30;98986.69;2175843;80;21125;-84
2022/07/04 02:28:03;;;;;;;21.50;6.12;;;;;;;14.57;70.20;98991.08;2189720;81;20955;-79
2022/07/04 02:31:03;;;;;;;5.35;4.95;;;;;;;14.43;70.79;98988.03;2190359;81;21003;-84
2022/07/04 02:34:04;;;;;;;5.97;5.37;;;;;;;14.33;71.63;98989.77;2190301;81;21008;-84
2022/07/04 02:37:04;;;;;;;5.75;5.17;;;;;;;14.23;71.91;98999.40;2190448;81;20960;-84
2022/07/04 02:40:05;;;;;;;5.80;5.30;;;;;;;14.09;71.92;98995.91;2190123;81;21579;-84
2022/07/04 02:43:05;;;;;;;11.55;6.08;;;;;;;14.01;72.75;99000.27;2189686;81;20967;-83
2022/07/04 02:46:05;;;;;;;7.67;6.12;;;;;;;14.61;78.85;99011.20;2189833;81;20964;-82
2022/07/04 02:49:06;;;;;;;11.48;5.53;;;;;;;16.13;76.36;98997.84;2189482;81;20968;-81
2022/07/04 02:52:06;;;;;;;7.78;5.12;;;;;;;17.15;72.99;99007.87;2189741;81;20956;-81
2022/07/04 02:55:07;;;;;;;8.20;5.33;;;;;;;17.83;70.26;99004.82;2189318;81;21058;-82
2022/07/04 02:58:07;;;;;;;8.58;5.05;;;;;;;18.26;68.23;99005.50;2190520;81;20988;-82
2022/07/04 03:01:07;;;;;;;6.45;5.42;;;;;;;18.58;67.06;99001.85;2190809;81;21314;-82
2022/07/04 03:04:08;;;;;;;5.92;4.95;;;;;;;18.91;65.25;99002.16;2189620;81;20988;-82
2022/07/04 03:07:08;;;;;;;5.20;4.80;;;;;;;19.00;63.71;99001.98;2190018;81;20956;-82
2022/07/04 03:10:09;;;;;;;32.88;8.75;;;;;;;18.20;62.11;99003.80;2190027;81;20951;-82
2022/07/04 03:13:09;;;;;;;6.35;4.87;;;;;;;17.31;63.47;99001.52;2189869;81;21024;-83
2022/07/04 03:16:10;;;;;;;5.80;5.30;;;;;;;16.62;64.35;99003.15;2189421;81;20968;-82
2022/07/04 03:19:10;;;;;;;107.75;14.55;;;;;;;16.10;65.53;98991.29;2189687;81;20975;-81
2022/07/04 03:22:10;;;;;;;7.00;5.62;;;;;;;15.67;66.79;98994.67;2189976;81;20991;-84
2022/07/04 03:25:11;;;;;;;37.25;8.08;;;;;;;15.44;68.33;98996.49;2186900;81;21339;-80
2022/07/04 03:28:11;;;;;;;5.92;5.42;;;;;;;15.23;69.18;98997.03;2173304;82;21399;-84
2022/07/04 03:31:12;;;;;;;6.40;5.42;;;;;;;15.12;69.60;98997.52;2173779;82;20944;-83
2022/07/04 03:34:12;;;;;;;5.85;5.28;;;;;;;15.03;70.15;98992.73;2173686;82;21289;-83
2022/07/04 03:37:12;;;;;;;5.80;5.22;;;;;;;14.89;70.89;98985.77;2173726;82;20952;-83
2022/07/04 03:40:13;;;;;;;5.80;5.30;;;;;;;14.80;71.66;98992.81;2175012;82;21043;-83
2022/07/04 03:43:13;;;;;;;10.30;5.67;;;;;;;14.73;72.19;98996.30;2174869;82;20936;-83
2022/07/04 03:46:14;;;;;;;6.85;5.60;;;;;;;14.67;72.87;98989.30;2174848;82;20945;-84
2022/07/04 03:49:14;;;;;;;35.33;6.87;;;;;;;14.62;73.27;98989.31;2174634;82;20968;-83
2022/07/04 03:52:14;;;;;;;18.07;6.00;;;;;;;14.64;73.98;98991.94;2174317;82;20928;-85
2022/07/04 03:55:15;;;;;;;6.55;5.85;;;;;;;14.72;74.09;98994.55;2174349;82;21027;-84
2022/07/04 03:58:15;;;;;;;6.40;5.72;;;;;;;14.74;74.58;98994.11;2174368;82;21000;-83
2022/07/04 04:01:16;;;;;;;8.03;6.03;;;;;;;14.76;74.86;98996.33;2173373;82;21021;-84
2022/07/04 04:07:35;;;;;;;6.25;5.58;;;;;;;14.89;75.32;98991.03;2173027;81;20952;-84
2022/07/04 04:10:35;;;;;;;6.58;5.97;;;;;;;14.98;75.58;98981.80;2173636;82;21313;-84
2022/07/04 04:13:36;;;;;;;9.13;5.95;;;;;;;15.15;76.07;98983.05;2173307;82;21012;-83
2022/07/04 04:16:36;;;;;;;6.30;5.70;;;;;;;15.37;76.01;98995.66;2172903;82;20996;-84
2022/07/04 04:19:37;;;;;;;56.23;9.60;;;;;;;15.60;76.47;98999.09;2172068;82;20936;-82
2022/07/04 04:22:37;;;;;;;8.83;6.20;;;;;;;15.83;76.36;98998.08;2172483;82;20921;-83
2022/07/04 04:25:37;;;;;;;7.03;6.37;;;;;;;16.11;76.68;98996.98;2175022;80;21011;-83
2022/07/04 04:28:38;;;;;;;9.00;6.35;;;;;;;16.39;76.67;99000.26;2188608;81;20983;-83
2022/07/04 04:31:38;;;;;;;6.87;6.12;;;;;;;16.69;76.88;99003.55;2188905;81;20968;-84
2022/07/04 04:34:41;;;;;;;6.83;5.77;;;;;;;16.94;76.59;99003.72;2189349;81;20936;-83
2022/07/04 04:37:42;;;;;;;1999.90;204.13;;;;;;;17.13;76.18;99004.38;2188956;81;20987;-81
2022/07/04 04:40:42;;;;;;;55.85;9.83;;;;;;;17.28;76.15;98999.36;2188348;81;21610;-84
2022/07/04 04:43:50;;;;;;;113.40;11.25;;;;;;;17.53;76.66;98999.49;2189160;81;21043;-84
2022/07/04 04:46:48;;;;;;;15.03;6.42;;;;;;;17.79;76.90;99002.67;2171756;81;20976;-83
2022/07/04 04:49:48;;;;;;;82.40;10.75;;;;;;;18.08;76.68;99007.51;2188715;81;21011;-84
2022/07/04 04:52:50;;;;;;;10.10;7.53;;;;;;;18.43;76.62;99008.73;2171855;81;21015;-84
2022/07/04 04:55:51;;;;;;;9.98;7.92;;;;;;;18.72;76.78;99007.80;2188754;81;21107;-85
2022/07/04 04:58:51;;;;;;;10.28;9.15;;;;;;;18.99;76.67;99002.44;2188405;81;21803;-85
2022/07/04 05:01:52;;;;;;;17.20;9.58;;;;;;;19.34;76.75;99001.75;2187993;81;20936;-86
2022/07/04 05:04:52;;;;;;;19.35;9.43;;;;;;;19.66;76.15;98999.77;2187820;81;21471;-84
2022/07/04 05:07:53;;;;;;;95.72;14.50;;;;;;;19.92;76.07;98991.67;2188218;81;20992;-83
2022/07/04 05:10:53;;;;;;;42.35;7.92;;;;;;;20.21;75.69;98985.25;2187300;81;20972;-84
2022/07/04 05:13:53;;;;;;;17.67;7.22;;;;;;;20.59;75.62;98986.08;2187918;81;20930;-83
2022/07/04 05:16:54;;;;;;;16.48;7.08;;;;;;;20.99;73.77;98989.42;2188310;81;20984;-83
2022/07/04 05:19:54;;;;;;;52.30;8.53;;;;;;;21.42;72.59;98991.34;2188140;81;20963;-85
2022/07/04 05:22:55;;;;;;;13.80;5.83;;;;;;;21.80;71.54;98987.09;2188425;81;20956;-84
2022/07/04 05:25:55;;;;;;;11.20;5.70;;;;;;;22.01;70.84;98993.97;2188495;81;21810;-83
2022/07/04 05:28:56;;;;;;;30.62;7.17;;;;;;;22.26;70.51;98996.28;2188509;81;21004;-85
2022/07/04 05:31:56;;;;;;;8.65;6.28;;;;;;;22.50;68.59;98993.25;2188975;81;20948;-84
2022/07/04 05:34:57;;;;;;;6.25;5.65;;;;;;;22.65;68.16;98994.55;2188688;81;21067;-83
2022/07/04 05:37:57;;;;;;;19.42;6.58;;;;;;;22.93;67.82;98989.16;2188635;81;20944;-83
2022/07/04 05:40:57;;;;;;;5.85;5.25;;;;;;;23.20;66.87;98990.81;2188056;81;20936;-85
2022/07/04 05:44:00;;;;;;;7.90;5.70;;;;;;;23.49;66.31;98997.28;2187743;81;20984;-84
2022/07/04 05:47:01;;;;;;;8.08;5.28;;;;;;;23.74;65.07;98993.70;2189505;81;20987;-83
2022/07/04 05:50:01;;;;;;;46.37;8.13;;;;;;;23.88;64.50;98992.70;2188249;81;21466;-83
2022/07/04 05:53:01;;;;;;;27.13;6.65;;;;;;;24.10;63.96;98986.91;2187446;81;20932;-83
2022/07/04 05:56:02;;;;;;;20.62;6.33;;;;;;;24.29;62.93;98987.55;2188330;81;21023;-82
2022/07/04 05:59:02;;;;;;;10.80;4.70;;;;;;;24.39;62.04;98982.23;2188561;81;21436;-82
2022/07/04 06:02:03;;;;;;;8.73;5.20;;;;;;;24.58;61.45;98983.19;2188024;81;20968;-82
2022/07/04 06:05:03;;;;;;;45.00;8.35;;;;;;;24.80;60.98;98991.13;2187635;81;20936;-82
2022/07/04 06:08:06;;;;;;;31.45;7.10;;;;;;;24.94;60.19;98995.41;2187423;81;21031;-84
2022/07/04 06:11:07;;;;;;;27.00;7.10;;;;;;;25.06;59.66;98996.23;2187614;81;21431;-82
2022/07/04 06:14:07;;;;;;;63.35;9.18;;;;;;;25.23;59.72;98996.84;2187225;81;20936;-80
2022/07/04 06:17:08;;;;;;;56.63;9.10;;;;;;;25.43;59.21;98991.92;2186496;81;21455;-81
2022/07/04 06:20:08;;;;;;;22.25;6.78;;;;;;;25.53;58.90;98995.03;2187223;81;21007;-83
2022/07/04 06:23:08;;;;;;;9.28;5.65;;;;;;;25.69;58.72;98994.27;2186085;81;20951;-81
2022/07/04 06:26:09;;;;;;;12.23;5.58;;;;;;;25.90;58.18;98992.38;2183898;81;21388;-80
2022/07/04 06:29:09;;;;;;;7.10;4.97;;;;;;;25.94;57.72;98987.28;2170454;82;20976;-82
2022/07/04 06:32:10;;;;;;;6.05;4.80;;;;;;;25.96;57.42;98996.09;2170254;82;21423;-81
2022/07/04 06:38:29;;;;;;;6.10;5.60;;;;;;;26.24;56.95;98977.39;2171615;81;20964;-81
2022/07/04 06:41:29;;;;;;;5.05;4.62;;;;;;;26.41;56.55;98977.92;2171469;82;20964;-83
2022/07/04 06:44:30;;;;;;;32.23;6.92;;;;;;;26.55;55.83;98976.27;2172067;82;21003;-82
2022/07/04 06:47:30;;;;;;;9.60;5.40;;;;;;;26.73;54.91;98969.58;2171253;82;20909;-82
2022/07/04 06:50:33;;;;;;;6.65;5.28;;;;;;;26.96;54.35;98971.95;2172047;82;20975;-83
2022/07/04 06:53:34;;;;;;;19.55;6.55;;;;;;;27.17;53.65;98972.18;2171299;82;20957;-81
2022/07/04 06:56:34;;;;;;;15.18;6.37;;;;;;;27.36;53.48;98979.23;2170617;82;21365;-80
2022/07/04 06:59:35;;;;;;;10.72;5.87;;;;;;;27.53;52.39;98980.51;2171084;82;20988;-80
2022/07/04 07:02:35;;;;;;;49.93;8.65;;;;;;;27.70;51.50;98969.75;2170906;82;20940;-81
2022/07/04 07:05:36;;;;;;;8.73;5.78;;;;;;;27.84;51.03;98967.19;2171652;82;21009;-81
2022/07/04 07:08:36;;;;;;;6.55;5.92;;;;;;;27.76;49.60;98965.41;2171233;82;21648;-80
2022/07/04 07:11:36;;;;;;;9.68;5.35;;;;;;;27.56;50.04;98969.61;2171319;82;20932;-80
2022/07/04 07:14:37;;;;;;;6.55;4.70;;;;;;;27.53;49.65;98970.66;2171174;82;21318;-81
2022/07/04 07:17:37;;;;;;;7.35;5.30;;;;;;;27.51;49.85;98976.58;2170928;82;21524;-80
2022/07/04 07:20:37;;;;;;;5.62;5.12;;;;;;;27.62;50.33;98978.70;2171218;82;21011;-81
2022/07/04 07:23:38;;;;;;;13.50;6.10;;;;;;;27.95;49.85;98979.99;2172095;82;20958;-80
2022/07/04 07:26:38;;;;;;;5.53;5.03;;;;;;;28.26;49.20;98980.95;2175552;81;21027;-81
2022/07/04 07:29:39;;;;;;;7.55;5.90;;;;;;;28.39;47.97;98974.77;2187788;81;20943;-80
2022/07/04 07:32:39;;;;;;;12.55;5.75;;;;;;;28.22;48.46;98969.48;2187799;81;20932;-82
2022/07/04 07:35:40;;;;;;;5.50;5.00;;;;;;;28.50;48.54;98967.42;2188278;81;21004;-80
2022/07/04 07:38:40;;;;;;;5.60;5.10;;;;;;;28.76;46.58;98967.23;2188785;81;20999;-81
2022/07/04 07:41:41;;;;;;;14.05;6.05;;;;;;;28.90;46.15;98955.21;2187999;81;20924;-80
2022/07/04 07:44:41;;;;;;;20.92;7.70;;;;;;;29.20;45.59;98958.30;2188761;81;20928;-81
2022/07/04 07:47:41;;;;;;;7.10;5.47;;;;;;;29.44;45.20;98960.83;2188389;81;20979;-81
2022/07/04 07:50:42;;;;;;;24.32;7.08;;;;;;;29.47;44.17;98960.16;2186953;81;21344;-82
2022/07/04 07:53:42;;;;;;;10.28;5.37;;;;;;;29.55;44.24;98958.84;2186971;81;21334;-81
2022/07/04 07:56:42;;;;;;;5.00;4.55;;;;;;;29.73;43.38;98958.52;2186438;81;20960;-83
2022/07/04 07:59:43;;;;;;;5.58;5.08;;;;;;;29.82;43.90;98965.13;2187285;81;20948;-81
2022/07/04 08:06:02;;;;;;;6.87;5.25;;;;;;;29.98;42.99;98969.03;2186727;81;21355;-81
2022/07/04 08:09:02;;;;;;;4.35;4.03;;;;;;;30.07;42.80;98959.90;2187680;81;21031;-81
2022/07/04 08:12:03;;;;;;;4.00;3.70;;;;;;;30.14;40.80;98971.13;2187789;81;20951;-82
2022/07/04 08:15:03;;;;;;;4.65;4.20;;;;;;;30.27;38.37;98964.44;2187263;81;20920;-82
2022/07/04 08:18:03;;;;;;;4.70;3.40;;;;;;;30.30;38.43;98965.58;2187970;81;21313;-82
2022/07/04 08:21:04;;;;;;;5.37;3.08;;;;;;;30.34;38.10;98962.58;2188052;81;20980;-81
2022/07/04 08:24:04;;;;;;;5.35;2.80;;;;;;;30.36;35.90;98976.84;2186942;81;20935;-82
2022/07/04 08:27:05;;;;;;;3.35;3.10;;;;;;;30.37;36.58;98969.14;2183737;80;21068;-80
2022/07/04 08:30:05;;;;;;;3.87;3.30;;;;;;;30.67;36.26;98962.19;2171368;82;21674;-81
2022/07/04 08:33:05;;;;;;;3.72;2.87;;;;;;;30.73;35.66;98963.59;2170854;82;20945;-80
2022/07/04 08:36:06;;;;;;;3.47;3.27;;;;;;;30.69;34.83;98975.07;2171333;82;20964;-77
2022/07/04 08:39:06;;;;;;;4.00;3.70;;;;;;;30.54;36.07;98969.83;2171160;82;21056;-81
2022/07/04 08:42:07;;;;;;;13.00;4.62;;;;;;;30.85;36.40;98973.53;2170122;82;20960;-79
2022/07/04 08:45:07;;;;;;;8.30;4.47;;;;;;;30.97;36.33;98968.64;2170513;82;21006;-80
2022/07/04 08:48:07;;;;;;;5.00;4.50;;;;;;;31.12;35.69;98972.09;2170878;82;20981;-81
2022/07/04 08:51:08;;;;;;;4.78;4.15;;;;;;;31.19;35.54;98980.65;2171393;82;20937;-81
2022/07/04 08:58:25;;;;;;;5.45;3.77;;;;;;;31.29;36.06;98983.11;2171880;82;21247;-81
2022/07/04 09:00:27;;;;;;;3.67;3.37;;;;;;;31.19;34.86;98972.56;2171880;81;20917;-80
2022/07/04 09:03:28;;;;;;;4.58;3.40;;;;;;;31.10;34.59;98967.30;2171851;82;20988;-80
2022/07/04 09:06:29;;;;;;;3.83;3.52;;;;;;;31.05;34.75;98967.62;2171604;82;20934;-79
2022/07/04 09:09:29;;;;;;;4.85;3.05;;;;;;;31.18;34.02;98968.14;2172319;82;21395;-79
2022/07/04 09:12:31;;;;;;;3.50;3.20;;;;;;;31.14;33.87;98969.30;2160839;82;20960;-82
2022/07/04 09:15:31;;;;;;;5.17;3.42;;;;;;;31.10;34.15;98964.59;2173566;82;21329;-80
2022/07/04 09:18:32;;;;;;;3.72;3.50;;;;;;;31.21;33.83;98967.47;2172974;82;21003;-80
2022/07/04 09:21:32;;;;;;;5.28;3.58;;;;;;;31.36;32.73;98969.08;2172689;82;21412;-81
2022/07/04 09:24:33;;;;;;;3.60;3.30;;;;;;;31.43;32.86;98964.10;2171999;82;21439;-80
2022/07/04 09:27:33;;;;;;;4.53;3.40;;;;;;;31.20;32.90;98968.41;2172116;80;20996;-81
2022/07/04 09:30:35;;;;;;;11.08;4.00;;;;;;;31.25;33.52;98964.93;2156953;83;21012;-80
2022/07/04 09:33:36;;;;;;;5.90;3.70;;;;;;;31.45;33.39;98970.25;2087788;85;20984;-80
2022/07/04 09:36:36;;;;;;;7.92;4.42;;;;;;;31.81;33.20;98970.80;2171653;81;20956;-81
2022/07/04 09:39:37;;;;;;;4.67;3.80;;;;;;;31.81;31.76;98965.89;2172344;82;20984;-81
2022/07/04 09:42:37;;;;;;;5.17;3.58;;;;;;;31.34;32.20;98968.81;2173275;82;21039;-80
2022/07/04 09:45:37;;;;;;;3.50;3.20;;;;;;;31.54;31.99;98964.20;2173672;82;20964;-80
2022/07/04 09:48:38;;;;;;;234.72;21.55;;;;;;;31.86;31.71;98965.93;2173411;82;20965;-79
2022/07/04 09:51:38;;;;;;;5.22;3.47;;;;;;;31.93;31.44;98963.16;2172434;82;20941;-81
2022/07/04 09:54:39;;;;;;;3.58;3.35;;;;;;;32.20;31.34;98959.41;2172150;82;20964;-81
2022/07/04 09:57:39;;;;;;;20.60;4.42;;;;;;;32.48;31.34;98960.92;2171310;82;20905;-76
2022/07/04 10:00:39;;;;;;;5.05;4.50;;;;;;;32.70;31.23;98955.59;2171526;82;21377;-80
2022/07/04 10:03:40;;;;;;;4.05;3.17;;;;;;;32.81;30.08;98950.25;2171900;82;20980;-81
2022/07/04 10:06:40;;;;;;;3.37;3.10;;;;;;;32.45;29.02;98951.20;2171234;82;20909;-80
2022/07/04 10:09:41;;;;;;;4.15;3.20;;;;;;;32.38;30.43;98940.98;2171132;82;21368;-79
2022/07/04 10:12:41;;;;;;;5.62;3.62;;;;;;;32.73;30.11;98939.14;2171525;82;20897;-79
2022/07/04 10:15:41;;;;;;;3.70;3.40;;;;;;;32.77;30.64;98936.60;2171477;82;20944;-80
2022/07/04 10:18:42;;;;;;;3.80;3.50;;;;;;;32.44;30.24;98938.67;2170786;82;21665;-82
2022/07/04 10:21:42;;;;;;;4.62;3.20;;;;;;;32.54;30.72;98937.48;2170217;82;20965;-81
2022/07/04 10:24:43;;;;;;;3.70;3.40;;;;;;;32.44;30.80;98936.47;2171371;82;20985;-80
2022/07/04 10:27:44;;;;;;;3.50;3.20;;;;;;;32.59;30.91;98928.53;2177641;81;20976;-79
2022/07/04 10:30:43;;;;;;;4.25;3.47;;;;;;;33.06;30.50;98928.94;2187837;81;21348;-78
2022/07/04 10:33:44;;;;;;;151.18;14.80;;;;;;;33.08;29.87;98926.98;2186991;81;20958;-80
2022/07/04 10:36:44;;;;;;;3.67;3.30;;;;;;;33.17;30.82;98922.68;2186465;81;21028;-80
2022/07/04 10:39:45;;;;;;;3.72;3.42;;;;;;;33.17;29.80;98910.02;2187307;81;20983;-80
2022/07/04 10:42:45;;;;;;;3.50;3.20;;;;;;;33.18;30.21;98909.52;2187884;81;21360;-80
2022/07/04 10:45:46;;;;;;;12.30;4.40;;;;;;;33.19;29.93;98904.48;2187842;81;20936;-80
2022/07/04 10:48:46;;;;;;;3.58;3.27;;;;;;;33.09;30.04;98904.36;2188395;81;20968;-80
2022/07/04 10:51:47;;;;;;;5.12;3.42;;;;;;;33.08;29.32;98899.08;2187866;81;21648;-77
2022/07/04 10:54:47;;;;;;;7.10;3.20;;;;;;;32.96;29.64;98904.10;2187941;81;20960;-81
2022/07/04 10:57:47;;;;;;;3.72;3.02;;;;;;;33.21;29.85;98902.52;2187925;81;21051;-80
2022/07/04 11:00:48;;;;;;;10.68;3.90;;;;;;;33.49;29.53;98918.28;2187971;81;21358;-80
2022/07/04 11:03:48;;;;;;;3.33;3.08;;;;;;;33.59;29.45;98914.33;2188999;81;20968;-80
2022/07/04 11:06:50;;;;;;;3.10;2.90;;;;;;;33.87;28.83;98921.11;2188808;81;20980;-79
2022/07/04 11:09:49;;;;;;;216.70;18.35;;;;;;;33.89;28.94;98910.16;2187867;81;20983;-80
2022/07/04 11:12:49;;;;;;;37.83;6.40;;;;;;;33.81;27.99;98914.36;2188553;81;20951;-81
2022/07/04 11:15:50;;;;;;;8.40;3.77;;;;;;;33.79;27.83;98909.98;2188046;81;20972;-80
2022/07/04 11:18:50;;;;;;;7.97;3.30;;;;;;;33.54;28.31;98915.20;2187877;81;20992;-80
2022/07/04 11:21:50;;;;;;;3.00;2.80;;;;;;;33.54;28.67;98912.00;2188531;81;20968;-79
2022/07/04 11:24:51;;;;;;;3.12;2.92;;;;;;;33.45;29.67;98916.80;2188384;81;20968;-79
2022/07/04 11:27:51;;;;;;;3.87;3.05;;;;;;;33.36;29.08;98918.91;2188027;81;21000;-78
2022/07/04 11:30:52;;;;;;;3.30;3.00;;;;;;;33.40;28.96;98912.26;2188686;81;20980;-80
2022/07/04 11:33:52;;;;;;;2.92;2.70;;;;;;;33.34;29.11;98914.11;2189136;81;21000;-80
2022/07/04 11:36:53;;;;;;;3.02;2.72;;;;;;;33.30;28.73;98913.98;2188998;81;20960;-80
2022/07/04 11:45:02;;;;;;;2.85;2.62;;;;;;;33.00;29.13;98913.69;2187789;81;21511;-79
2022/07/04 11:46:12;;;;;;;4.35;3.10;;;;;;;33.21;28.58;98914.69;2188621;81;20971;-80
2022/07/04 11:49:13;;;;;;;3.00;2.80;;;;;;;33.04;28.63;98906.57;2188099;81;20968;-80
2022/07/04 11:52:13;;;;;;;3.40;2.72;;;;;;;33.29;28.80;98908.17;2188511;81;20944;-79
2022/07/04 11:55:14;;;;;;;3.20;2.95;;;;;;;33.42;29.21;98905.38;2188607;81;20936;-80
2022/07/04 11:58:14;;;;;;;2.98;2.70;;;;;;;33.54;29.22;98904.37;2188653;81;20924;-80
2022/07/04 12:01:15;;;;;;;7.22;3.08;;;;;;;33.69;28.11;98900.91;2187649;81;20979;-80
2022/07/04 12:04:16;;;;;;;3.35;2.70;;;;;;;33.71;28.05;98897.58;2188737;81;20967;-80
2022/07/04 12:07:15;;;;;;;4.12;2.33;;;;;;;34.03;27.90;98887.70;2188500;81;20983;-79
2022/07/04 12:10:16;;;;;;;3.85;2.50;;;;;;;34.36;27.58;98877.74;2187387;81;20955;-80
2022/07/04 12:13:17;;;;;;;7.25;2.50;;;;;;;34.22;27.58;98875.31;2186954;81;20980;-80
2022/07/04 12:16:17;;;;;;;6.08;2.50;;;;;;;34.09;28.16;98884.48;2188115;81;20970;-80
2022/07/04 12:19:17;;;;;;;2.92;2.67;;;;;;;34.01;27.60;98884.76;2187964;81;21348;-82
2022/07/04 12:22:17;;;;;;;5.92;3.10;;;;;;;33.84;27.49;98875.34;2186811;81;20940;-80
2022/07/04 12:25:20;;;;;;;5.22;3.30;;;;;;;33.69;27.95;98863.88;2186491;81;21067;-81
2022/07/04 12:28:19;;;;;;;3.15;2.58;;;;;;;33.44;28.08;98869.58;2185723;80;21380;-81
2022/07/04 12:31:20;;;;;;;3.33;3.02;;;;;;;33.52;28.66;98869.81;2186465;81;20984;-80
2022/07/04 12:34:20;;;;;;;3.58;2.42;;;;;;;33.75;28.18;98853.02;2186568;81;20940;-81
2022/07/04 12:37:20;;;;;;;3.35;2.90;;;;;;;33.81;28.14;98864.27;2186469;81;20944;-77
2022/07/04 12:40:21;;;;;;;3.70;2.55;;;;;;;33.93;28.03;98866.45;2186973;81;20968;-79
2022/07/04 12:43:21;;;;;;;3.10;2.80;;;;;;;34.32;28.10;98859.53;2187002;81;21012;-79
2022/07/04 12:46:22;;;;;;;4.20;2.80;;;;;;;34.22;27.95;98853.15;2187317;81;20971;-79
2022/07/04 12:49:22;;;;;;;9.50;3.00;;;;;;;34.18;28.44;98854.41;2187063;81;20948;-80
2022/07/04 12:52:22;;;;;;;4.50;2.52;;;;;;;34.40;27.94;98864.30;2187158;81;20976;-79
2022/07/04 12:55:23;;;;;;;2.65;2.45;;;;;;;34.62;27.72;98858.74;2188228;81;20936;-80
2022/07/04 12:58:23;;;;;;;2.70;2.50;;;;;;;34.74;27.48;98859.56;2188628;81;20928;-80
2022/07/04 13:01:24;;;;;;;3.42;2.50;;;;;;;35.18;26.91;98859.73;2189302;81;20932;-80
2022/07/04 13:04:24;;;;;;;8.48;3.00;;;;;;;35.10;26.87;98854.13;2188619;81;20952;-78
2022/07/04 13:07:25;;;;;;;3.10;2.90;;;;;;;35.17;27.13;98848.52;2188316;81;20940;-79
2022/07/04 13:10:25;;;;;;;2.62;2.40;;;;;;;35.23;26.22;98853.40;2187036;81;21027;-80
2022/07/04 13:13:25;;;;;;;4.30;2.67;;;;;;;35.07;26.74;98844.91;2187314;81;21336;-80
2022/07/04 13:16:26;;;;;;;2.47;2.27;;;;;;;34.86;26.81;98849.03;2187408;81;20972;-80
2022/07/04 13:19:26;;;;;;;2.77;2.58;;;;;;;34.94;27.06;98845.64;2187422;81;20940;-80
2022/07/04 13:22:26;;;;;;;3.77;2.50;;;;;;;34.84;26.77;98851.02;2187730;81;21380;-82
2022/07/04 13:25:27;;;;;;;2.80;2.60;;;;;;;34.68;26.75;98847.86;2187111;81;20944;-80
2022/07/04 13:28:27;;;;;;;2.83;2.60;;;;;;;34.96;26.92;98842.30;2181490;81;20933;-79
2022/07/04 13:31:28;;;;;;;5.92;2.65;;;;;;;35.20;26.55;98840.11;2171313;82;20948;-80
2022/07/04 13:34:28;;;;;;;238.15;20.50;;;;;;;35.36;26.44;98841.83;2172041;82;21589;-80
2022/07/04 13:37:29;;;;;;;3.42;2.90;;;;;;;35.36;26.76;98842.33;2170478;82;20937;-80
2022/07/04 13:40:29;;;;;;;3.45;2.72;;;;;;;35.33;26.13;98842.61;2171907;82;21013;-81
2022/07/04 13:43:29;;;;;;;4.45;2.92;;;;;;;35.13;26.31;98841.16;2172650;82;20976;-81
2022/07/04 13:46:31;;;;;;;3.98;2.60;;;;;;;35.05;26.36;98834.70;2172201;82;20921;-80
2022/07/04 13:49:30;;;;;;;2.80;2.60;;;;;;;34.97;26.07;98833.16;2172901;82;20913;-81
2022/07/04 13:52:31;;;;;;;2.47;2.27;;;;;;;35.06;26.62;98831.84;2172425;82;20976;-80
2022/07/04 13:55:31;;;;;;;2.25;2.08;;;;;;;35.21;26.49;98828.26;2172744;82;20980;-82
2022/07/04 13:58:31;;;;;;;4.33;2.65;;;;;;;35.30;25.65;98826.58;2172060;82;20984;-80
2022/07/04 14:01:32;;;;;;;4.78;2.45;;;;;;;34.41;26.47;98831.65;2171346;82;21337;-80
2022/07/04 14:04:32;;;;;;;2.72;2.50;;;;;;;34.12;27.21;98825.98;2172351;82;21332;-80
2022/07/04 14:07:35;;;;;;;2.65;2.45;;;;;;;33.94;28.22;98820.78;2171901;82;20937;-80
2022/07/04 14:10:35;;;;;;;5.15;2.52;;;;;;;33.84;27.22;98837.44;2171862;82;20972;-80
2022/07/04 14:13:36;;;;;;;3.00;2.72;;;;;;;33.60;27.23;98825.88;2171733;82;20977;-80
2022/07/04 14:16:36;;;;;;;4.03;2.70;;;;;;;33.66;26.93;98827.59;2171828;82;21061;-80
2022/07/04 14:19:37;;;;;;;7.28;2.98;;;;;;;34.06;27.72;98825.16;2172181;82;20961;-80
2022/07/04 14:22:37;;;;;;;4.72;3.00;;;;;;;34.48;28.23;98823.84;2172735;82;20960;-80
2022/07/04 14:25:37;;;;;;;2.75;2.55;;;;;;;34.66;28.45;98824.95;2172376;82;20972;-80